sensor_id;sensor_type;location;lat;lon;timestamp;pressure;altitude;pressure_sealevel;temperature;humidity
47670;BME280;33408;52.062;11.722;2023-02-02T00:02:08;100743.78;;;4.35;100.00
47670;BME280;33408;52.062;11.722;2023-02-02T00:04:35;100727.63;;;4.47;100.00
47670;BME280;33408;52.062;11.722;2023-02-02T00:07:02;100733.50;;;4.30;100.00
47670;BME280;33408;52.062;11.722;2023-02-02T00:09:30;100738.53;;;4.18;100.00
47670;BME280;33408;52.062;11.722;2023-02-02T00:11:58;100743.63;;;4.16;100.00
47670;BME280;33408;52.062;11.722;2023-02-02T00:14:25;100737.66;;;4.16;100.00
47670;BME280;33408;52.062;11.722;2023-02-02T00:16:55;100750.44;;;4.11;100.00
47670;BME280;33408;52.062;11.722;2023-02-02T00:19:23;100737.69;;;4.19;100.00
47670;BME280;33408;52.062;11.722;2023-02-02T00:21:51;100732.59;;;4.22;100.00
47670;BME280;33408;52.062;11.722;2023-02-02T00:24:18;100739.34;;;4.17;100.00
47670;BME280;33408;52.062;11.722;2023-02-02T00:26:48;100747.00;;;4.08;100.00
47670;BME280;33408;52.062;11.722;2023-02-02T00:29:16;100738.41;;;4.03;100.00
47670;BME280;33408;52.062;11.722;2023-02-02T00:31:43;100724.75;;;4.07;100.00
47670;BME280;33408;52.062;11.722;2023-02-02T00:34:12;100723.94;;;4.11;100.00
47670;BME280;33408;52.062;11.722;2023-02-02T00:36:39;100728.28;;;4.19;100.00
47670;BME280;33408;52.062;11.722;2023-02-02T00:39:07;100730.78;;;4.13;100.00
47670;BME280;33408;52.062;11.722;2023-02-02T00:41:37;100732.53;;;4.16;100.00
47670;BME280;33408;52.062;11.722;2023-02-02T00:44:04;100730.81;;;4.16;100.00
47670;BME280;33408;52.062;11.722;2023-02-02T00:46:48;100730.78;;;4.12;100.00
47670;BME280;33408;52.062;11.722;2023-02-02T00:49:15;100739.38;;;4.14;100.00
47670;BME280;33408;52.062;11.722;2023-02-02T00:51:42;100722.25;;;4.13;100.00
47670;BME280;33408;52.062;11.722;2023-02-02T00:54:09;100729.03;;;4.08;100.00
47670;BME280;33408;52.062;11.722;2023-02-02T00:56:35;100746.16;;;4.12;100.00
47670;BME280;33408;52.062;11.722;2023-02-02T00:59:02;100736.75;;;4.08;100.00
47670;BME280;33408;52.062;11.722;2023-02-02T01:01:28;100748.66;;;4.04;100.00
47670;BME280;33408;52.062;11.722;2023-02-02T01:03:55;100753.03;;;4.14;100.00
47670;BME280;33408;52.062;11.722;2023-02-02T01:06:24;100759.81;;;4.05;100.00
47670;BME280;33408;52.062;11.722;2023-02-02T01:08:51;100770.09;;;4.08;100.00
47670;BME280;33408;52.062;11.722;2023-02-02T01:11:18;100767.53;;;4.09;100.00
47670;BME280;33408;52.062;11.722;2023-02-02T01:13:44;100771.03;;;4.17;100.00
47670;BME280;33408;52.062;11.722;2023-02-02T01:16:11;100784.78;;;4.26;100.00
47670;BME280;33408;52.062;11.722;2023-02-02T01:18:38;100774.53;;;4.29;100.00
47670;BME280;33408;52.062;11.722;2023-02-02T01:21:07;100773.59;;;4.19;100.00
47670;BME280;33408;52.062;11.722;2023-02-02T01:23:36;100773.56;;;4.14;100.00
47670;BME280;33408;52.062;11.722;2023-02-02T01:26:05;100766.72;;;4.16;100.00
47670;BME280;33408;52.062;11.722;2023-02-02T01:28:32;100740.31;;;4.31;100.00
47670;BME280;33408;52.062;11.722;2023-02-02T01:31:04;100736.06;;;4.30;100.00
47670;BME280;33408;52.062;11.722;2023-02-02T01:33:31;100766.88;;;4.33;100.00
47670;BME280;33408;52.062;11.722;2023-02-02T01:36:03;100764.38;;;4.44;100.00
47670;BME280;33408;52.062;11.722;2023-02-02T01:38:30;100771.16;;;4.37;100.00
47670;BME280;33408;52.062;11.722;2023-02-02T01:40:58;100772.03;;;4.35;100.00
47670;BME280;33408;52.062;11.722;2023-02-02T01:43:27;100753.28;;;4.45;100.00
47670;BME280;33408;52.062;11.722;2023-02-02T01:45:55;100771.22;;;4.45;100.00
47670;BME280;33408;52.062;11.722;2023-02-02T01:48:25;100780.72;;;4.52;100.00
47670;BME280;33408;52.062;11.722;2023-02-02T01:50:55;100790.09;;;4.52;100.00
47670;BME280;33408;52.062;11.722;2023-02-02T01:53:25;100795.31;;;4.60;100.00
47670;BME280;33408;52.062;11.722;2023-02-02T01:55:52;100788.47;;;4.65;100.00
47670;BME280;33408;52.062;11.722;2023-02-02T01:58:22;100788.50;;;4.68;100.00
47670;BME280;33408;52.062;11.722;2023-02-02T02:00:49;100801.34;;;4.69;100.00
47670;BME280;33408;52.062;11.722;2023-02-02T02:03:20;100787.59;;;4.58;100.00
47670;BME280;33408;52.062;11.722;2023-02-02T02:05:48;100797.03;;;4.67;100.00
47670;BME280;33408;52.062;11.722;2023-02-02T02:08:19;100793.56;;;4.57;100.00
47670;BME280;33408;52.062;11.722;2023-02-02T02:10:46;100773.06;;;4.63;100.00
47670;BME280;33408;52.062;11.722;2023-02-02T02:13:13;100803.94;;;4.69;100.00
47670;BME280;33408;52.062;11.722;2023-02-02T02:15:46;100803.84;;;4.59;100.00
47670;BME280;33408;52.062;11.722;2023-02-02T02:18:41;100803.84;;;4.59;100.00
47670;BME280;33408;52.062;11.722;2023-02-02T02:21:39;100796.13;;;4.59;100.00
47670;BME280;33408;52.062;11.722;2023-02-02T02:28:38;100811.56;;;4.60;100.00
47670;BME280;33408;52.062;11.722;2023-02-02T02:34:16;100830.41;;;4.59;100.00
47670;BME280;33408;52.062;11.722;2023-02-02T02:36:49;100827.84;;;4.65;100.00
47670;BME280;33408;52.062;11.722;2023-02-02T02:39:22;100823.63;;;4.70;100.00
47670;BME280;33408;52.062;11.722;2023-02-02T02:41:57;100832.97;;;4.65;100.00
47670;BME280;33408;52.062;11.722;2023-02-02T02:44:26;100839.78;;;4.60;100.00
47670;BME280;33408;52.062;11.722;2023-02-02T02:46:53;100841.53;;;4.61;100.00
47670;BME280;33408;52.062;11.722;2023-02-02T02:49:21;100831.34;;;4.72;100.00
47670;BME280;33408;52.062;11.722;2023-02-02T02:51:50;100850.19;;;4.75;100.00
47670;BME280;33408;52.062;11.722;2023-02-02T02:54:20;100848.50;;;4.81;100.00
47670;BME280;33408;52.062;11.722;2023-02-02T02:56:55;100868.16;;;4.75;100.00
47670;BME280;33408;52.062;11.722;2023-02-02T02:59:33;100869.00;;;4.74;100.00
47670;BME280;33408;52.062;11.722;2023-02-02T03:02:09;100857.91;;;4.75;100.00
47670;BME280;33408;52.062;11.722;2023-02-02T03:04:46;100865.53;;;4.68;100.00
47670;BME280;33408;52.062;11.722;2023-02-02T03:07:20;100867.19;;;4.61;100.00
47670;BME280;33408;52.062;11.722;2023-02-02T03:09:48;100877.53;;;4.69;100.00
47670;BME280;33408;52.062;11.722;2023-02-02T03:12:16;100873.25;;;4.69;100.00
47670;BME280;33408;52.062;11.722;2023-02-02T03:14:43;100856.97;;;4.67;100.00
47670;BME280;33408;52.062;11.722;2023-02-02T03:17:10;100866.50;;;4.81;100.00
47670;BME280;33408;52.062;11.722;2023-02-02T03:19:36;100873.31;;;4.75;100.00
47670;BME280;33408;52.062;11.722;2023-02-02T03:22:04;100873.28;;;4.74;100.00
47670;BME280;33408;52.062;11.722;2023-02-02T03:24:32;100875.00;;;4.72;100.00
47670;BME280;33408;52.062;11.722;2023-02-02T03:26:59;100878.53;;;4.88;100.00
47670;BME280;33408;52.062;11.722;2023-02-02T03:29:26;100894.72;;;4.79;100.00
47670;BME280;33408;52.062;11.722;2023-02-02T03:31:53;100899.06;;;4.83;100.00
47670;BME280;33408;52.062;11.722;2023-02-02T03:34:19;100906.78;;;4.85;100.00
47670;BME280;33408;52.062;11.722;2023-02-02T03:36:46;100910.25;;;4.91;100.00
47670;BME280;33408;52.062;11.722;2023-02-02T03:39:14;100899.09;;;4.88;100.00
47670;BME280;33408;52.062;11.722;2023-02-02T03:41:40;100905.88;;;4.81;100.00
47670;BME280;33408;52.062;11.722;2023-02-02T03:44:07;100904.22;;;4.85;100.00
47670;BME280;33408;52.062;11.722;2023-02-02T03:46:34;100898.09;;;4.70;100.00
47670;BME280;33408;52.062;11.722;2023-02-02T03:49:00;100893.00;;;4.75;100.00
47670;BME280;33408;52.062;11.722;2023-02-02T03:51:27;100904.91;;;4.68;100.00
47670;BME280;33408;52.062;11.722;2023-02-02T03:53:53;100907.50;;;4.73;100.00
47670;BME280;33408;52.062;11.722;2023-02-02T03:56:21;100922.09;;;4.75;100.00
47670;BME280;33408;52.062;11.722;2023-02-02T03:58:48;100927.34;;;4.88;100.00
47670;BME280;33408;52.062;11.722;2023-02-02T04:01:14;100928.19;;;4.87;100.00
47670;BME280;33408;52.062;11.722;2023-02-02T04:03:41;100947.94;;;4.97;100.00
47670;BME280;33408;52.062;11.722;2023-02-02T04:06:10;100940.19;;;4.91;100.00
47670;BME280;33408;52.062;11.722;2023-02-02T04:08:37;100924.81;;;4.94;100.00
47670;BME280;33408;52.062;11.722;2023-02-02T04:11:03;100936.75;;;4.89;100.00
47670;BME280;33408;52.062;11.722;2023-02-02T04:13:31;100935.00;;;4.82;100.00
47670;BME280;33408;52.062;11.722;2023-02-02T04:15:59;100951.22;;;4.79;100.00
47670;BME280;33408;52.062;11.722;2023-02-02T04:18:26;100948.53;;;4.65;100.00
47670;BME280;33408;52.062;11.722;2023-02-02T04:20:57;100962.34;;;4.75;100.00
47670;BME280;33408;52.062;11.722;2023-02-02T04:23:23;100962.28;;;4.70;100.00
47670;BME280;33408;52.062;11.722;2023-02-02T04:25:51;100972.59;;;4.73;100.00
47670;BME280;33408;52.062;11.722;2023-02-02T04:28:17;100942.59;;;4.69;100.00
47670;BME280;33408;52.062;11.722;2023-02-02T04:30:45;100965.75;;;4.75;100.00
47670;BME280;33408;52.062;11.722;2023-02-02T04:33:12;100973.41;;;4.71;100.00
47670;BME280;33408;52.062;11.722;2023-02-02T04:35:38;100981.06;;;4.66;100.00
47670;BME280;33408;52.062;11.722;2023-02-02T04:38:05;100989.56;;;4.57;100.00
47670;BME280;33408;52.062;11.722;2023-02-02T04:40:32;100988.81;;;4.69;100.00
47670;BME280;33408;52.062;11.722;2023-02-02T04:42:58;101003.28;;;4.60;100.00
47670;BME280;33408;52.062;11.722;2023-02-02T04:45:25;100982.75;;;4.63;100.00
47670;BME280;33408;52.062;11.722;2023-02-02T04:47:53;100997.28;;;4.59;100.00
47670;BME280;33408;52.062;11.722;2023-02-02T04:50:19;100984.47;;;4.65;100.00
47670;BME280;33408;52.062;11.722;2023-02-02T04:52:46;101003.28;;;4.61;100.00
47670;BME280;33408;52.062;11.722;2023-02-02T04:55:13;101011.97;;;4.72;100.00
47670;BME280;33408;52.062;11.722;2023-02-02T04:57:39;100988.03;;;4.78;100.00
47670;BME280;33408;52.062;11.722;2023-02-02T05:00:07;100997.41;;;4.73;100.00
47670;BME280;33408;52.062;11.722;2023-02-02T05:02:35;101007.72;;;4.78;100.00
47670;BME280;33408;52.062;11.722;2023-02-02T05:05:05;101013.72;;;4.77;100.00
47670;BME280;33408;52.062;11.722;2023-02-02T05:07:32;101022.25;;;4.74;100.00
47670;BME280;33408;52.062;11.722;2023-02-02T05:09:59;101022.25;;;4.75;100.00
47670;BME280;33408;52.062;11.722;2023-02-02T05:12:25;101028.22;;;4.74;100.00
47670;BME280;33408;52.062;11.722;2023-02-02T05:14:52;101022.22;;;4.71;100.00
47670;BME280;33408;52.062;11.722;2023-02-02T05:17:18;101027.38;;;4.72;100.00
47670;BME280;33408;52.062;11.722;2023-02-02T05:19:45;101022.28;;;4.79;100.00
47670;BME280;33408;52.062;11.722;2023-02-02T05:22:13;101023.91;;;4.69;100.00
47670;BME280;33408;52.062;11.722;2023-02-02T05:24:45;101023.91;;;4.67;100.00
47670;BME280;33408;52.062;11.722;2023-02-02T05:27:12;101032.44;;;4.66;100.00
47670;BME280;33408;52.062;11.722;2023-02-02T05:29:39;101040.22;;;4.72;100.00
47670;BME280;33408;52.062;11.722;2023-02-02T05:32:05;101047.88;;;4.69;100.00
47670;BME280;33408;52.062;11.722;2023-02-02T05:34:32;101047.88;;;4.69;100.00
47670;BME280;33408;52.062;11.722;2023-02-02T05:36:58;101041.03;;;4.70;100.00
47670;BME280;33408;52.062;11.722;2023-02-02T05:39:26;101052.94;;;4.63;100.00
47670;BME280;33408;52.062;11.722;2023-02-02T05:41:53;101044.34;;;4.60;100.00
47670;BME280;33408;52.062;11.722;2023-02-02T05:44:20;101040.94;;;4.61;100.00
47670;BME280;33408;52.062;11.722;2023-02-02T05:46:46;101056.25;;;4.51;100.00
47670;BME280;33408;52.062;11.722;2023-02-02T05:49:13;101058.72;;;4.44;100.00
47670;BME280;33408;52.062;11.722;2023-02-02T05:51:42;101070.66;;;4.42;100.00
47670;BME280;33408;52.062;11.722;2023-02-02T05:54:10;101086.06;;;4.42;100.00
47670;BME280;33408;52.062;11.722;2023-02-02T05:56:38;101077.59;;;4.50;100.00
47670;BME280;33408;52.062;11.722;2023-02-02T05:59:05;101083.59;;;4.48;100.00
47670;BME280;33408;52.062;11.722;2023-02-02T06:01:32;101089.47;;;4.41;100.00
47670;BME280;33408;52.062;11.722;2023-02-02T06:03:59;101079.94;;;4.30;100.00
47670;BME280;33408;52.062;11.722;2023-02-02T06:06:25;101089.38;;;4.34;100.00
47670;BME280;33408;52.062;11.722;2023-02-02T06:08:52;101096.19;;;4.31;100.00
47670;BME280;33408;52.062;11.722;2023-02-02T06:11:18;101107.22;;;4.24;100.00
47670;BME280;33408;52.062;11.722;2023-02-02T06:13:46;101108.97;;;4.28;100.00
47670;BME280;33408;52.062;11.722;2023-02-02T06:16:13;101098.75;;;4.31;100.00
47670;BME280;33408;52.062;11.722;2023-02-02T06:18:40;101104.59;;;4.19;100.00
47670;BME280;33408;52.062;11.722;2023-02-02T06:21:06;101117.50;;;4.24;100.00
47670;BME280;33408;52.062;11.722;2023-02-02T06:23:33;101114.84;;;4.17;100.00
47670;BME280;33408;52.062;11.722;2023-02-02T06:26:00;101122.56;;;4.19;100.00
47670;BME280;33408;52.062;11.722;2023-02-02T06:28:28;101125.78;;;4.07;100.00
47670;BME280;33408;52.062;11.722;2023-02-02T06:31:02;101137.88;;;4.14;100.00
47670;BME280;33408;52.062;11.722;2023-02-02T06:33:29;101136.88;;;4.05;100.00
47670;BME280;33408;52.062;11.722;2023-02-02T06:35:57;101147.25;;;4.11;100.00
47670;BME280;33408;52.062;11.722;2023-02-02T06:38:24;101137.00;;;4.12;100.00
47670;BME280;33408;52.062;11.722;2023-02-02T06:40:51;101152.44;;;4.14;100.00
47670;BME280;33408;52.062;11.722;2023-02-02T06:43:17;101148.06;;;4.10;100.00
47670;BME280;33408;52.062;11.722;2023-02-02T06:45:44;101152.44;;;4.15;100.00
47670;BME280;33408;52.062;11.722;2023-02-02T06:48:12;101156.00;;;4.25;100.00
47670;BME280;33408;52.062;11.722;2023-02-02T06:50:38;101162.00;;;4.26;100.00
47670;BME280;33408;52.062;11.722;2023-02-02T06:53:05;101164.69;;;4.35;100.00
47670;BME280;33408;52.062;11.722;2023-02-02T06:55:32;101177.59;;;4.38;100.00
47670;BME280;33408;52.062;11.722;2023-02-02T06:57:59;101164.66;;;4.32;100.00
47670;BME280;33408;52.062;11.722;2023-02-02T07:00:27;101170.81;;;4.45;100.00
47670;BME280;33408;52.062;11.722;2023-02-02T07:02:54;101169.03;;;4.39;100.00
47670;BME280;33408;52.062;11.722;2023-02-02T07:05:22;101172.53;;;4.46;100.00
47670;BME280;33408;52.062;11.722;2023-02-02T07:07:49;101175.91;;;4.40;100.00
47670;BME280;33408;52.062;11.722;2023-02-02T07:10:16;101163.97;;;4.44;100.00
47670;BME280;33408;52.062;11.722;2023-02-02T07:12:43;101179.25;;;4.36;100.00
47670;BME280;33408;52.062;11.722;2023-02-02T07:15:10;101184.59;;;4.50;100.00
47670;BME280;33408;52.062;11.722;2023-02-02T07:17:37;101187.13;;;4.48;100.00
47670;BME280;33408;52.062;11.722;2023-02-02T07:20:04;101191.41;;;4.48;100.00
47670;BME280;33408;52.062;11.722;2023-02-02T07:22:32;101191.50;;;4.57;100.00
47670;BME280;33408;52.062;11.722;2023-02-02T07:25:01;101198.38;;;4.58;100.00
47670;BME280;33408;52.062;11.722;2023-02-02T07:27:28;101199.19;;;4.55;100.00
47670;BME280;33408;52.062;11.722;2023-02-02T07:29:54;101201.75;;;4.52;100.00
47670;BME280;33408;52.062;11.722;2023-02-02T07:32:21;101206.13;;;4.61;100.00
47670;BME280;33408;52.062;11.722;2023-02-02T07:34:48;101211.25;;;4.60;100.00
47670;BME280;33408;52.062;11.722;2023-02-02T07:37:15;101204.38;;;4.59;100.00
47670;BME280;33408;52.062;11.722;2023-02-02T07:39:43;101216.31;;;4.55;100.00
47670;BME280;33408;52.062;11.722;2023-02-02T07:42:10;101221.50;;;4.58;100.00
47670;BME280;33408;52.062;11.722;2023-02-02T07:44:37;101220.72;;;4.62;100.00
47670;BME280;33408;52.062;11.722;2023-02-02T07:47:04;101230.97;;;4.62;100.00
47670;BME280;33408;52.062;11.722;2023-02-02T07:49:30;101225.00;;;4.65;100.00
47670;BME280;33408;52.062;11.722;2023-02-02T07:51:57;101230.03;;;4.59;100.00
47670;BME280;33408;52.062;11.722;2023-02-02T07:54:24;101233.38;;;4.51;100.00
47670;BME280;33408;52.062;11.722;2023-02-02T07:56:52;101233.38;;;4.51;100.00
47670;BME280;33408;52.062;11.722;2023-02-02T07:59:18;101231.81;;;4.61;100.00
47670;BME280;33408;52.062;11.722;2023-02-02T08:01:45;101231.84;;;4.64;100.00
47670;BME280;33408;52.062;11.722;2023-02-02T08:04:11;101238.69;;;4.65;100.00
47670;BME280;33408;52.062;11.722;2023-02-02T08:06:39;101249.03;;;4.70;100.00
47670;BME280;33408;52.062;11.722;2023-02-02T08:09:07;101240.53;;;4.74;100.00
47670;BME280;33408;52.062;11.722;2023-02-02T08:11:34;101243.94;;;4.73;100.00
47670;BME280;33408;52.062;11.722;2023-02-02T08:14:03;101265.47;;;4.81;100.00
47670;BME280;33408;52.062;11.722;2023-02-02T08:16:31;101250.09;;;4.84;100.00
47670;BME280;33408;52.062;11.722;2023-02-02T08:18:58;101240.69;;;4.83;100.00
47670;BME280;33408;52.062;11.722;2023-02-02T08:21:25;101268.19;;;4.93;100.00
47670;BME280;33408;52.062;11.722;2023-02-02T08:23:52;101257.16;;;4.99;100.00
47670;BME280;33408;52.062;11.722;2023-02-02T08:26:21;101267.53;;;5.08;100.00
47670;BME280;33408;52.062;11.722;2023-02-02T08:28:50;101264.09;;;5.08;100.00
47670;BME280;33408;52.062;11.722;2023-02-02T08:31:20;101267.53;;;5.08;100.00
47670;BME280;33408;52.062;11.722;2023-02-02T08:33:48;101270.13;;;5.11;100.00
47670;BME280;33408;52.062;11.722;2023-02-02T08:36:17;101279.63;;;5.16;100.00
47670;BME280;33408;52.062;11.722;2023-02-02T08:38:44;101273.63;;;5.17;100.00
47670;BME280;33408;52.062;11.722;2023-02-02T08:41:12;101274.53;;;5.19;100.00
47670;BME280;33408;52.062;11.722;2023-02-02T08:43:39;101276.31;;;5.24;100.00
47670;BME280;33408;52.062;11.722;2023-02-02T08:46:07;101272.03;;;5.25;100.00
47670;BME280;33408;52.062;11.722;2023-02-02T08:48:35;101284.09;;;5.30;100.00
47670;BME280;33408;52.062;11.722;2023-02-02T08:51:03;101276.28;;;5.23;100.00
47670;BME280;33408;52.062;11.722;2023-02-02T08:53:30;101277.25;;;5.33;100.00
47670;BME280;33408;52.062;11.722;2023-02-02T08:55:58;101284.16;;;5.37;100.00
47670;BME280;33408;52.062;11.722;2023-02-02T08:58:25;101288.47;;;5.36;100.00
47670;BME280;33408;52.062;11.722;2023-02-02T09:00:51;101285.91;;;5.39;100.00
47670;BME280;33408;52.062;11.722;2023-02-02T09:03:18;101284.28;;;5.44;100.00
47670;BME280;33408;52.062;11.722;2023-02-02T09:05:46;101297.19;;;5.51;100.00
47670;BME280;33408;52.062;11.722;2023-02-02T09:08:12;101305.75;;;5.50;100.00
47670;BME280;33408;52.062;11.722;2023-02-02T09:10:39;101294.59;;;5.47;100.00
47670;BME280;33408;52.062;11.722;2023-02-02T09:13:06;101302.25;;;5.43;100.00
47670;BME280;33408;52.062;11.722;2023-02-02T09:15:32;101299.72;;;5.47;100.00
47670;BME280;33408;52.062;11.722;2023-02-02T09:17:59;101301.38;;;5.42;100.00
47670;BME280;33408;52.062;11.722;2023-02-02T09:20:25;101301.34;;;5.41;100.00
47670;BME280;33408;52.062;11.722;2023-02-02T09:22:55;101316.97;;;5.58;100.00
47670;BME280;33408;52.062;11.722;2023-02-02T09:25:22;101319.53;;;5.56;100.00
47670;BME280;33408;52.062;11.722;2023-02-02T09:27:50;101317.78;;;5.55;100.00
47670;BME280;33408;52.062;11.722;2023-02-02T09:30:17;101313.56;;;5.59;100.00
47670;BME280;33408;52.062;11.722;2023-02-02T09:32:43;101314.56;;;5.70;100.00
47670;BME280;33408;52.062;11.722;2023-02-02T09:35:10;101330.69;;;5.58;100.00
47670;BME280;33408;52.062;11.722;2023-02-02T09:37:37;101320.72;;;5.86;100.00
47670;BME280;33408;52.062;11.722;2023-02-02T09:40:06;101326.81;;;5.93;100.00
47670;BME280;33408;52.062;11.722;2023-02-02T09:42:47;101326.88;;;5.97;100.00
47670;BME280;33408;52.062;11.722;2023-02-02T09:45:21;101328.47;;;5.88;100.00
47670;BME280;33408;52.062;11.722;2023-02-02T09:47:53;101330.19;;;5.89;100.00
47670;BME280;33408;52.062;11.722;2023-02-02T09:50:39;101323.28;;;5.84;100.00
47670;BME280;33408;52.062;11.722;2023-02-02T09:53:13;101346.50;;;5.92;100.00
47670;BME280;33408;52.062;11.722;2023-02-02T09:55:44;101338.94;;;6.05;100.00
47670;BME280;33408;52.062;11.722;2023-02-02T09:58:18;101350.34;;;6.28;100.00
47670;BME280;33408;52.062;11.722;2023-02-02T10:00:52;101354.44;;;6.09;100.00
47670;BME280;33408;52.062;11.722;2023-02-02T10:03:23;101363.91;;;6.12;100.00
47670;BME280;33408;52.062;11.722;2023-02-02T10:05:57;101361.41;;;6.19;100.00
47670;BME280;33408;52.062;11.722;2023-02-02T10:08:32;101363.88;;;6.07;100.00
47670;BME280;33408;52.062;11.722;2023-02-02T10:11:07;101366.56;;;6.23;100.00
47670;BME280;33408;52.062;11.722;2023-02-02T10:13:40;101370.03;;;6.22;100.00
47670;BME280;33408;52.062;11.722;2023-02-02T10:16:14;101362.28;;;6.25;100.00
47670;BME280;33408;52.062;11.722;2023-02-02T10:18:47;101367.50;;;6.29;100.00
47670;BME280;33408;52.062;11.722;2023-02-02T10:21:25;101374.22;;;6.16;100.00
47670;BME280;33408;52.062;11.722;2023-02-02T10:23:52;101366.47;;;6.10;100.00
47670;BME280;33408;52.062;11.722;2023-02-02T10:26:27;101362.97;;;6.05;100.00
47670;BME280;33408;52.062;11.722;2023-02-02T10:29:06;101370.78;;;6.14;100.00
47670;BME280;33408;52.062;11.722;2023-02-02T10:31:54;101369.91;;;6.11;100.00
47670;BME280;33408;52.062;11.722;2023-02-02T10:34:28;101381.94;;;6.13;100.00
47670;BME280;33408;52.062;11.722;2023-02-02T10:37:09;101379.50;;;6.29;100.00
47670;BME280;33408;52.062;11.722;2023-02-02T10:39:53;101393.94;;;6.11;100.00
47670;BME280;33408;52.062;11.722;2023-02-02T10:42:28;101392.97;;;6.03;100.00
47670;BME280;33408;52.062;11.722;2023-02-02T10:45:00;101402.94;;;5.77;100.00
47670;BME280;33408;52.062;11.722;2023-02-02T10:47:30;101394.66;;;5.98;100.00
47670;BME280;33408;52.062;11.722;2023-02-02T10:50:05;101397.22;;;5.98;100.00
47670;BME280;33408;52.062;11.722;2023-02-02T10:52:42;101398.25;;;6.12;100.00
47670;BME280;33408;52.062;11.722;2023-02-02T10:55:20;101391.66;;;6.44;100.00
47670;BME280;33408;52.062;11.722;2023-02-02T10:57:59;101399.31;;;6.33;100.00
47670;BME280;33408;52.062;11.722;2023-02-02T11:00:32;101403.66;;;6.42;100.00
47670;BME280;33408;52.062;11.722;2023-02-02T11:03:01;101400.31;;;6.50;100.00
47670;BME280;33408;52.062;11.722;2023-02-02T11:05:29;101396.16;;;6.68;100.00
47670;BME280;33408;52.062;11.722;2023-02-02T11:08:17;101406.53;;;6.74;100.00
47670;BME280;33408;52.062;11.722;2023-02-02T11:10:45;101401.38;;;6.74;100.00
47670;BME280;33408;52.062;11.722;2023-02-02T11:13:21;101405.72;;;6.78;100.00
47670;BME280;33408;52.062;11.722;2023-02-02T11:15:49;101409.97;;;6.76;100.00
47670;BME280;33408;52.062;11.722;2023-02-02T11:18:27;101410.88;;;6.80;100.00
47670;BME280;33408;52.062;11.722;2023-02-02T11:20:54;101399.59;;;6.65;100.00
47670;BME280;33408;52.062;11.722;2023-02-02T11:23:25;101409.97;;;6.73;100.00
47670;BME280;33408;52.062;11.722;2023-02-02T11:26:01;101432.25;;;6.68;100.00
47670;BME280;33408;52.062;11.722;2023-02-02T11:28:33;101424.56;;;6.74;100.00
47670;BME280;33408;52.062;11.722;2023-02-02T11:31:02;101422.19;;;6.96;100.00
47670;BME280;33408;52.062;11.722;2023-02-02T11:33:30;101415.34;;;7.01;100.00
47670;BME280;33408;52.062;11.722;2023-02-02T11:35:59;101427.53;;;7.25;100.00
47670;BME280;33408;52.062;11.722;2023-02-02T11:38:27;101428.25;;;7.02;100.00
47670;BME280;33408;52.062;11.722;2023-02-02T11:40:59;101413.47;;;6.81;100.00
47670;BME280;33408;52.062;11.722;2023-02-02T11:43:29;101424.75;;;7.00;100.00
47670;BME280;33408;52.062;11.722;2023-02-02T11:46:01;101434.38;;;7.18;100.00
47670;BME280;33408;52.062;11.722;2023-02-02T11:48:31;101439.50;;;7.14;100.00
47670;BME280;33408;52.062;11.722;2023-02-02T11:51:00;101437.00;;;7.30;100.00
47670;BME280;33408;52.062;11.722;2023-02-02T11:53:30;101420.81;;;7.53;100.00
47670;BME280;33408;52.062;11.722;2023-02-02T11:56:00;101423.16;;;7.16;100.00
47670;BME280;33408;52.062;11.722;2023-02-02T11:58:29;101425.66;;;7.01;100.00
47670;BME280;33408;52.062;11.722;2023-02-02T12:01:22;101423.22;;;7.25;100.00
47670;BME280;33408;52.062;11.722;2023-02-02T12:03:49;101436.91;;;7.12;100.00
47670;BME280;33408;52.062;11.722;2023-02-02T12:06:18;101430.00;;;7.11;100.00
47670;BME280;33408;52.062;11.722;2023-02-02T12:08:45;101430.78;;;6.96;100.00
47670;BME280;33408;52.062;11.722;2023-02-02T12:11:23;101437.66;;;7.02;100.00
47670;BME280;33408;52.062;11.722;2023-02-02T12:14:07;101434.19;;;6.97;100.00
47670;BME280;33408;52.062;11.722;2023-02-02T12:16:51;101442.06;;;7.14;100.00
47670;BME280;33408;52.062;11.722;2023-02-02T12:19:45;101434.25;;;7.01;100.00
47670;BME280;33408;52.062;11.722;2023-02-02T12:22:27;101437.72;;;7.09;100.00
47670;BME280;33408;52.062;11.722;2023-02-02T12:25:11;101429.19;;;7.14;100.00
47670;BME280;33408;52.062;11.722;2023-02-02T12:27:52;101442.97;;;7.22;100.00
47670;BME280;33408;52.062;11.722;2023-02-02T12:30:27;101433.47;;;7.16;100.00
47670;BME280;33408;52.062;11.722;2023-02-02T12:33:12;101443.75;;;7.11;100.00
47670;BME280;33408;52.062;11.722;2023-02-02T12:35:59;101441.16;;;7.04;100.00
47670;BME280;33408;52.062;11.722;2023-02-02T12:38:44;101446.44;;;7.25;100.00
47670;BME280;33408;52.062;11.722;2023-02-02T12:41:29;101450.72;;;7.23;100.00
47670;BME280;33408;52.062;11.722;2023-02-02T12:44:06;101445.53;;;7.17;100.00
47670;BME280;33408;52.062;11.722;2023-02-02T12:46:48;101457.53;;;7.10;100.00
47670;BME280;33408;52.062;11.722;2023-02-02T12:49:38;101458.34;;;7.09;100.00
47670;BME280;33408;52.062;11.722;2023-02-02T12:52:19;101460.94;;;7.09;100.00
47670;BME280;33408;52.062;11.722;2023-02-02T12:55:00;101468.56;;;6.92;100.00
47670;BME280;33408;52.062;11.722;2023-02-02T12:57:36;101470.25;;;6.93;100.00
47670;BME280;33408;52.062;11.722;2023-02-02T13:00:29;101468.59;;;7.02;100.00
47670;BME280;33408;52.062;11.722;2023-02-02T13:03:04;101474.56;;;6.94;100.00